sensor_id;sensor_type;location;lat;lon;timestamp;P1;durP1;ratioP1;P2;durP2;ratioP2
13163;SDS011;6647;53.688;10.746;2023-05-10T00:00:32;7.40;;;4.05;;
13163;SDS011;6647;53.688;10.746;2023-05-10T00:01:53;4.32;;;2.70;;
13163;SDS011;6647;53.688;10.746;2023-05-10T00:03:14;3.92;;;2.97;;
13163;SDS011;6647;53.688;10.746;2023-05-10T00:04:35;5.20;;;3.45;;
13163;SDS011;6647;53.688;10.746;2023-05-10T00:05:56;4.78;;;3.78;;
13163;SDS011;6647;53.688;10.746;2023-05-10T00:07:17;4.05;;;3.60;;
13163;SDS011;6647;53.688;10.746;2023-05-10T00:08:38;5.63;;;3.20;;
13163;SDS011;6647;53.688;10.746;2023-05-10T00:09:59;6.38;;;3.30;;
13163;SDS011;6647;53.688;10.746;2023-05-10T00:11:20;6.07;;;3.53;;
13163;SDS011;6647;53.688;10.746;2023-05-10T00:12:41;6.03;;;3.67;;
13163;SDS011;6647;53.688;10.746;2023-05-10T00:14:02;3.90;;;3.00;;
13163;SDS011;6647;53.688;10.746;2023-05-10T00:15:23;8.23;;;3.97;;
13163;SDS011;6647;53.688;10.746;2023-05-10T00:16:44;10.75;;;4.00;;
13163;SDS011;6647;53.688;10.746;2023-05-10T00:18:05;6.68;;;3.35;;
13163;SDS011;6647;53.688;10.746;2023-05-10T00:19:26;6.25;;;3.53;;
13163;SDS011;6647;53.688;10.746;2023-05-10T00:20:47;4.85;;;3.45;;
13163;SDS011;6647;53.688;10.746;2023-05-10T00:22:09;9.73;;;3.60;;
13163;SDS011;6647;53.688;10.746;2023-05-10T00:23:30;9.95;;;3.92;;
13163;SDS011;6647;53.688;10.746;2023-05-10T00:24:51;4.40;;;3.70;;
13163;SDS011;6647;53.688;10.746;2023-05-10T00:26:12;7.50;;;3.72;;
13163;SDS011;6647;53.688;10.746;2023-05-10T00:27:33;8.80;;;4.35;;
13163;SDS011;6647;53.688;10.746;2023-05-10T00:28:54;4.97;;;3.20;;
13163;SDS011;6647;53.688;10.746;2023-05-10T00:30:15;5.25;;;4.03;;
13163;SDS011;6647;53.688;10.746;2023-05-10T00:31:36;3.90;;;3.50;;
13163;SDS011;6647;53.688;10.746;2023-05-10T00:32:56;9.70;;;3.92;;
13163;SDS011;6647;53.688;10.746;2023-05-10T00:34:17;7.65;;;3.50;;
13163;SDS011;6647;53.688;10.746;2023-05-10T00:35:38;7.18;;;3.47;;
13163;SDS011;6647;53.688;10.746;2023-05-10T00:36:59;10.10;;;3.55;;
13163;SDS011;6647;53.688;10.746;2023-05-10T00:38:20;9.05;;;4.10;;
13163;SDS011;6647;53.688;10.746;2023-05-10T00:39:41;7.90;;;4.32;;
13163;SDS011;6647;53.688;10.746;2023-05-10T00:41:02;8.95;;;4.20;;
13163;SDS011;6647;53.688;10.746;2023-05-10T00:42:23;5.88;;;3.13;;
13163;SDS011;6647;53.688;10.746;2023-05-10T00:43:44;9.55;;;4.25;;
13163;SDS011;6647;53.688;10.746;2023-05-10T00:45:05;7.38;;;3.20;;
13163;SDS011;6647;53.688;10.746;2023-05-10T00:46:27;8.50;;;3.58;;
13163;SDS011;6647;53.688;10.746;2023-05-10T00:47:48;6.18;;;3.35;;
13163;SDS011;6647;53.688;10.746;2023-05-10T00:49:09;4.43;;;3.47;;
13163;SDS011;6647;53.688;10.746;2023-05-10T00:50:31;3.75;;;3.45;;
13163;SDS011;6647;53.688;10.746;2023-05-10T00:51:53;4.30;;;3.80;;
13163;SDS011;6647;53.688;10.746;2023-05-10T00:53:14;6.32;;;3.80;;
13163;SDS011;6647;53.688;10.746;2023-05-10T00:54:35;5.60;;;3.67;;
13163;SDS011;6647;53.688;10.746;2023-05-10T00:55:57;5.72;;;3.63;;
13163;SDS011;6647;53.688;10.746;2023-05-10T00:57:18;12.15;;;3.97;;
13163;SDS011;6647;53.688;10.746;2023-05-10T00:58:39;8.13;;;4.22;;
13163;SDS011;6647;53.688;10.746;2023-05-10T01:00:02;6.82;;;4.20;;
13163;SDS011;6647;53.688;10.746;2023-05-10T01:01:24;6.57;;;3.58;;
13163;SDS011;6647;53.688;10.746;2023-05-10T01:02:45;4.95;;;3.40;;
13163;SDS011;6647;53.688;10.746;2023-05-10T01:04:06;5.50;;;3.20;;
13163;SDS011;6647;53.688;10.746;2023-05-10T01:05:27;6.05;;;4.90;;
13163;SDS011;6647;53.688;10.746;2023-05-10T01:06:48;6.30;;;4.18;;
13163;SDS011;6647;53.688;10.746;2023-05-10T01:08:09;6.00;;;3.50;;
13163;SDS011;6647;53.688;10.746;2023-05-10T01:09:30;9.20;;;3.70;;
13163;SDS011;6647;53.688;10.746;2023-05-10T01:10:51;12.88;;;3.90;;
13163;SDS011;6647;53.688;10.746;2023-05-10T01:12:12;7.63;;;3.67;;
13163;SDS011;6647;53.688;10.746;2023-05-10T01:13:38;5.97;;;4.40;;
13163;SDS011;6647;53.688;10.746;2023-05-10T01:15:02;8.05;;;4.43;;
13163;SDS011;6647;53.688;10.746;2023-05-10T01:16:25;5.47;;;3.60;;
13163;SDS011;6647;53.688;10.746;2023-05-10T01:17:47;7.18;;;4.10;;
13163;SDS011;6647;53.688;10.746;2023-05-10T01:19:27;11.27;;;3.88;;
13163;SDS011;6647;53.688;10.746;2023-05-10T01:20:53;5.55;;;3.67;;
13163;SDS011;6647;53.688;10.746;2023-05-10T01:24:16;7.75;;;4.03;;
13163;SDS011;6647;53.688;10.746;2023-05-10T01:26:24;7.65;;;3.45;;
13163;SDS011;6647;53.688;10.746;2023-05-10T01:34:35;6.82;;;4.50;;
13163;SDS011;6647;53.688;10.746;2023-05-10T01:37:42;5.68;;;3.97;;
13163;SDS011;6647;53.688;10.746;2023-05-10T01:41:34;6.88;;;4.55;;
13163;SDS011;6647;53.688;10.746;2023-05-10T01:43:11;4.93;;;4.10;;
13163;SDS011;6647;53.688;10.746;2023-05-10T01:45:46;7.20;;;3.97;;
13163;SDS011;6647;53.688;10.746;2023-05-10T01:47:10;4.80;;;3.50;;
13163;SDS011;6647;53.688;10.746;2023-05-10T01:48:32;5.20;;;3.85;;
13163;SDS011;6647;53.688;10.746;2023-05-10T01:49:54;6.15;;;4.47;;
13163;SDS011;6647;53.688;10.746;2023-05-10T01:51:16;7.55;;;4.03;;
13163;SDS011;6647;53.688;10.746;2023-05-10T01:52:44;10.85;;;4.90;;
13163;SDS011;6647;53.688;10.746;2023-05-10T01:54:10;4.32;;;3.92;;
13163;SDS011;6647;53.688;10.746;2023-05-10T01:55:34;8.50;;;4.55;;
13163;SDS011;6647;53.688;10.746;2023-05-10T01:57:01;6.13;;;3.90;;
13163;SDS011;6647;53.688;10.746;2023-05-10T01:58:27;5.55;;;3.58;;
13163;SDS011;6647;53.688;10.746;2023-05-10T01:59:50;8.30;;;3.78;;
13163;SDS011;6647;53.688;10.746;2023-05-10T02:01:12;4.47;;;4.07;;
13163;SDS011;6647;53.688;10.746;2023-05-10T02:02:35;6.90;;;4.05;;
13163;SDS011;6647;53.688;10.746;2023-05-10T02:03:59;7.55;;;4.78;;
13163;SDS011;6647;53.688;10.746;2023-05-10T02:05:21;8.95;;;4.15;;
13163;SDS011;6647;53.688;10.746;2023-05-10T02:06:43;5.93;;;4.63;;
13163;SDS011;6647;53.688;10.746;2023-05-10T02:08:06;6.43;;;4.10;;
13163;SDS011;6647;53.688;10.746;2023-05-10T02:09:29;7.72;;;4.30;;
13163;SDS011;6647;53.688;10.746;2023-05-10T02:10:52;9.18;;;3.88;;
13163;SDS011;6647;53.688;10.746;2023-05-10T02:12:15;5.82;;;3.92;;
13163;SDS011;6647;53.688;10.746;2023-05-10T02:13:37;4.07;;;3.67;;
13163;SDS011;6647;53.688;10.746;2023-05-10T02:14:59;9.13;;;5.07;;
13163;SDS011;6647;53.688;10.746;2023-05-10T02:16:24;6.10;;;4.30;;
13163;SDS011;6647;53.688;10.746;2023-05-10T02:17:47;7.18;;;3.63;;
13163;SDS011;6647;53.688;10.746;2023-05-10T02:19:08;8.75;;;3.80;;
13163;SDS011;6647;53.688;10.746;2023-05-10T02:20:30;7.80;;;4.55;;
13163;SDS011;6647;53.688;10.746;2023-05-10T02:21:52;5.53;;;4.53;;
13163;SDS011;6647;53.688;10.746;2023-05-10T02:23:14;4.00;;;3.67;;
13163;SDS011;6647;53.688;10.746;2023-05-10T02:24:37;4.45;;;4.05;;
13163;SDS011;6647;53.688;10.746;2023-05-10T02:26:00;6.05;;;3.95;;
13163;SDS011;6647;53.688;10.746;2023-05-10T02:27:22;4.43;;;3.42;;
13163;SDS011;6647;53.688;10.746;2023-05-10T02:28:44;6.80;;;4.07;;
13163;SDS011;6647;53.688;10.746;2023-05-10T02:30:06;15.20;;;4.35;;
13163;SDS011;6647;53.688;10.746;2023-05-10T02:31:27;7.50;;;4.05;;
13163;SDS011;6647;53.688;10.746;2023-05-10T02:32:49;8.98;;;4.18;;
13163;SDS011;6647;53.688;10.746;2023-05-10T02:34:11;4.53;;;4.00;;
13163;SDS011;6647;53.688;10.746;2023-05-10T02:35:33;5.18;;;4.63;;
13163;SDS011;6647;53.688;10.746;2023-05-10T02:36:56;7.10;;;4.55;;
13163;SDS011;6647;53.688;10.746;2023-05-10T02:38:18;6.82;;;4.20;;
13163;SDS011;6647;53.688;10.746;2023-05-10T02:39:42;4.97;;;4.47;;
13163;SDS011;6647;53.688;10.746;2023-05-10T02:41:05;4.60;;;4.20;;
13163;SDS011;6647;53.688;10.746;2023-05-10T02:42:29;4.13;;;3.67;;
13163;SDS011;6647;53.688;10.746;2023-05-10T02:43:53;11.70;;;4.30;;
13163;SDS011;6647;53.688;10.746;2023-05-10T02:45:18;8.13;;;4.47;;
13163;SDS011;6647;53.688;10.746;2023-05-10T02:46:42;5.35;;;4.05;;
13163;SDS011;6647;53.688;10.746;2023-05-10T02:48:03;5.65;;;4.15;;
13163;SDS011;6647;53.688;10.746;2023-05-10T02:49:25;4.88;;;4.20;;
13163;SDS011;6647;53.688;10.746;2023-05-10T02:50:46;7.18;;;4.68;;
13163;SDS011;6647;53.688;10.746;2023-05-10T02:52:11;4.88;;;4.38;;
13163;SDS011;6647;53.688;10.746;2023-05-10T02:53:41;6.40;;;4.10;;
13163;SDS011;6647;53.688;10.746;2023-05-10T02:55:06;4.45;;;3.92;;
13163;SDS011;6647;53.688;10.746;2023-05-10T02:56:33;5.95;;;5.10;;
13163;SDS011;6647;53.688;10.746;2023-05-10T02:57:56;4.68;;;3.85;;
13163;SDS011;6647;53.688;10.746;2023-05-10T02:59:20;5.72;;;4.53;;
13163;SDS011;6647;53.688;10.746;2023-05-10T03:00:41;5.78;;;4.55;;
13163;SDS011;6647;53.688;10.746;2023-05-10T03:02:01;6.15;;;4.53;;
13163;SDS011;6647;53.688;10.746;2023-05-10T03:03:23;6.18;;;4.60;;
13163;SDS011;6647;53.688;10.746;2023-05-10T03:04:44;4.55;;;4.15;;
13163;SDS011;6647;53.688;10.746;2023-05-10T03:06:05;6.38;;;4.68;;
13163;SDS011;6647;53.688;10.746;2023-05-10T03:07:26;5.15;;;4.30;;
13163;SDS011;6647;53.688;10.746;2023-05-10T03:08:47;7.70;;;5.20;;
13163;SDS011;6647;53.688;10.746;2023-05-10T03:10:08;6.10;;;4.78;;
13163;SDS011;6647;53.688;10.746;2023-05-10T03:13:36;6.15;;;4.50;;
13163;SDS011;6647;53.688;10.746;2023-05-10T03:16:27;4.30;;;3.90;;
13163;SDS011;6647;53.688;10.746;2023-05-10T03:18:01;5.40;;;4.90;;
13163;SDS011;6647;53.688;10.746;2023-05-10T03:19:32;4.80;;;4.20;;
13163;SDS011;6647;53.688;10.746;2023-05-10T03:21:01;6.63;;;4.80;;
13163;SDS011;6647;53.688;10.746;2023-05-10T03:22:28;5.47;;;4.18;;
13163;SDS011;6647;53.688;10.746;2023-05-10T03:23:56;7.72;;;4.93;;
13163;SDS011;6647;53.688;10.746;2023-05-10T03:25:23;6.68;;;4.50;;
13163;SDS011;6647;53.688;10.746;2023-05-10T03:26:44;6.60;;;4.68;;
13163;SDS011;6647;53.688;10.746;2023-05-10T03:28:06;7.13;;;4.20;;
13163;SDS011;6647;53.688;10.746;2023-05-10T03:29:28;6.90;;;5.40;;
13163;SDS011;6647;53.688;10.746;2023-05-10T03:30:51;6.15;;;4.57;;
13163;SDS011;6647;53.688;10.746;2023-05-10T03:32:14;5.30;;;4.80;;
13163;SDS011;6647;53.688;10.746;2023-05-10T03:33:35;5.32;;;4.30;;
13163;SDS011;6647;53.688;10.746;2023-05-10T03:34:55;8.38;;;5.20;;
13163;SDS011;6647;53.688;10.746;2023-05-10T03:36:17;5.32;;;4.20;;
13163;SDS011;6647;53.688;10.746;2023-05-10T03:37:38;5.15;;;4.30;;
13163;SDS011;6647;53.688;10.746;2023-05-10T03:38:59;5.90;;;4.70;;
13163;SDS011;6647;53.688;10.746;2023-05-10T03:40:20;5.22;;;4.65;;
13163;SDS011;6647;53.688;10.746;2023-05-10T03:41:41;7.32;;;5.20;;
13163;SDS011;6647;53.688;10.746;2023-05-10T03:43:02;5.90;;;4.80;;
13163;SDS011;6647;53.688;10.746;2023-05-10T03:44:23;7.97;;;4.55;;
13163;SDS011;6647;53.688;10.746;2023-05-10T03:45:44;9.48;;;4.78;;
13163;SDS011;6647;53.688;10.746;2023-05-10T03:47:04;5.43;;;4.15;;
13163;SDS011;6647;53.688;10.746;2023-05-10T03:48:25;6.80;;;5.13;;
13163;SDS011;6647;53.688;10.746;2023-05-10T03:49:46;5.22;;;4.40;;
13163;SDS011;6647;53.688;10.746;2023-05-10T03:51:07;10.73;;;4.63;;
13163;SDS011;6647;53.688;10.746;2023-05-10T03:52:28;5.82;;;4.53;;
13163;SDS011;6647;53.688;10.746;2023-05-10T03:53:49;6.82;;;4.75;;
13163;SDS011;6647;53.688;10.746;2023-05-10T03:55:10;4.40;;;4.00;;
13163;SDS011;6647;53.688;10.746;2023-05-10T03:56:31;9.65;;;4.30;;
13163;SDS011;6647;53.688;10.746;2023-05-10T03:57:52;6.07;;;4.72;;
13163;SDS011;6647;53.688;10.746;2023-05-10T03:59:14;6.18;;;4.57;;
13163;SDS011;6647;53.688;10.746;2023-05-10T04:00:35;7.00;;;4.70;;
13163;SDS011;6647;53.688;10.746;2023-05-10T04:01:56;9.55;;;5.05;;
13163;SDS011;6647;53.688;10.746;2023-05-10T04:03:17;11.93;;;4.50;;
13163;SDS011;6647;53.688;10.746;2023-05-10T04:04:38;5.07;;;4.65;;
13163;SDS011;6647;53.688;10.746;2023-05-10T04:06:02;5.63;;;4.22;;
13163;SDS011;6647;53.688;10.746;2023-05-10T04:07:23;5.57;;;4.70;;
13163;SDS011;6647;53.688;10.746;2023-05-10T04:08:44;5.07;;;4.20;;
13163;SDS011;6647;53.688;10.746;2023-05-10T04:10:05;7.65;;;4.63;;
13163;SDS011;6647;53.688;10.746;2023-05-10T04:11:26;5.35;;;4.30;;
13163;SDS011;6647;53.688;10.746;2023-05-10T04:12:48;5.90;;;4.47;;
13163;SDS011;6647;53.688;10.746;2023-05-10T04:14:09;5.97;;;4.95;;
13163;SDS011;6647;53.688;10.746;2023-05-10T04:15:29;6.80;;;4.75;;
13163;SDS011;6647;53.688;10.746;2023-05-10T04:16:50;10.95;;;4.85;;
13163;SDS011;6647;53.688;10.746;2023-05-10T04:18:11;5.10;;;4.60;;
13163;SDS011;6647;53.688;10.746;2023-05-10T04:19:32;7.25;;;5.07;;
13163;SDS011;6647;53.688;10.746;2023-05-10T04:20:54;8.07;;;4.75;;
13163;SDS011;6647;53.688;10.746;2023-05-10T04:22:14;6.55;;;4.80;;
13163;SDS011;6647;53.688;10.746;2023-05-10T04:23:36;6.30;;;4.28;;
13163;SDS011;6647;53.688;10.746;2023-05-10T04:24:57;9.80;;;5.10;;
13163;SDS011;6647;53.688;10.746;2023-05-10T04:26:18;5.47;;;4.72;;
13163;SDS011;6647;53.688;10.746;2023-05-10T04:27:39;8.75;;;4.60;;
13163;SDS011;6647;53.688;10.746;2023-05-10T04:29:00;5.40;;;4.90;;
13163;SDS011;6647;53.688;10.746;2023-05-10T04:30:21;5.13;;;4.60;;
13163;SDS011;6647;53.688;10.746;2023-05-10T04:31:42;6.00;;;4.95;;
13163;SDS011;6647;53.688;10.746;2023-05-10T04:33:02;6.18;;;4.88;;
13163;SDS011;6647;53.688;10.746;2023-05-10T04:34:23;5.00;;;4.50;;
13163;SDS011;6647;53.688;10.746;2023-05-10T04:35:44;7.15;;;4.88;;
13163;SDS011;6647;53.688;10.746;2023-05-10T04:37:05;4.95;;;4.40;;
13163;SDS011;6647;53.688;10.746;2023-05-10T04:38:27;9.23;;;5.30;;
13163;SDS011;6647;53.688;10.746;2023-05-10T04:39:48;6.93;;;5.40;;
13163;SDS011;6647;53.688;10.746;2023-05-10T04:41:10;7.38;;;5.03;;
13163;SDS011;6647;53.688;10.746;2023-05-10T04:42:31;13.13;;;5.25;;
13163;SDS011;6647;53.688;10.746;2023-05-10T04:43:52;7.07;;;4.70;;
13163;SDS011;6647;53.688;10.746;2023-05-10T04:45:13;7.88;;;4.95;;
13163;SDS011;6647;53.688;10.746;2023-05-10T04:46:37;5.78;;;5.28;;
13163;SDS011;6647;53.688;10.746;2023-05-10T04:47:58;8.07;;;5.45;;
13163;SDS011;6647;53.688;10.746;2023-05-10T04:49:19;6.18;;;4.70;;
13163;SDS011;6647;53.688;10.746;2023-05-10T04:50:40;6.00;;;5.30;;
13163;SDS011;6647;53.688;10.746;2023-05-10T04:52:01;15.48;;;4.60;;
13163;SDS011;6647;53.688;10.746;2023-05-10T04:53:22;7.18;;;5.38;;
13163;SDS011;6647;53.688;10.746;2023-05-10T04:54:43;6.15;;;4.75;;
13163;SDS011;6647;53.688;10.746;2023-05-10T04:56:04;5.57;;;4.85;;
13163;SDS011;6647;53.688;10.746;2023-05-10T04:57:25;6.68;;;4.72;;
13163;SDS011;6647;53.688;10.746;2023-05-10T04:58:46;4.65;;;4.25;;
13163;SDS011;6647;53.688;10.746;2023-05-10T05:00:07;7.25;;;5.05;;
13163;SDS011;6647;53.688;10.746;2023-05-10T05:01:28;8.02;;;4.72;;
13163;SDS011;6647;53.688;10.746;2023-05-10T05:02:49;6.07;;;5.30;;
13163;SDS011;6647;53.688;10.746;2023-05-10T05:04:10;6.38;;;4.78;;
13163;SDS011;6647;53.688;10.746;2023-05-10T05:05:31;6.57;;;4.40;;
13163;SDS011;6647;53.688;10.746;2023-05-10T05:06:52;5.68;;;4.45;;
13163;SDS011;6647;53.688;10.746;2023-05-10T05:08:13;8.55;;;5.53;;
13163;SDS011;6647;53.688;10.746;2023-05-10T05:09:34;6.57;;;5.38;;
13163;SDS011;6647;53.688;10.746;2023-05-10T05:10:55;6.68;;;4.80;;
13163;SDS011;6647;53.688;10.746;2023-05-10T05:12:16;11.40;;;5.63;;
13163;SDS011;6647;53.688;10.746;2023-05-10T05:13:37;6.53;;;4.72;;
13163;SDS011;6647;53.688;10.746;2023-05-10T05:14:57;6.38;;;5.15;;
13163;SDS011;6647;53.688;10.746;2023-05-10T05:16:18;5.38;;;4.85;;
13163;SDS011;6647;53.688;10.746;2023-05-10T05:17:39;5.22;;;4.72;;
13163;SDS011;6647;53.688;10.746;2023-05-10T05:19:00;6.07;;;5.18;;
13163;SDS011;6647;53.688;10.746;2023-05-10T05:20:21;7.82;;;4.82;;
13163;SDS011;6647;53.688;10.746;2023-05-10T05:21:43;7.05;;;5.13;;
13163;SDS011;6647;53.688;10.746;2023-05-10T05:23:04;8.27;;;5.32;;
13163;SDS011;6647;53.688;10.746;2023-05-10T05:24:24;5.90;;;5.25;;
13163;SDS011;6647;53.688;10.746;2023-05-10T05:25:46;5.25;;;4.70;;
13163;SDS011;6647;53.688;10.746;2023-05-10T05:27:07;6.95;;;5.32;;
13163;SDS011;6647;53.688;10.746;2023-05-10T05:28:27;6.25;;;5.30;;
13163;SDS011;6647;53.688;10.746;2023-05-10T05:29:53;13.07;;;4.40;;
13163;SDS011;6647;53.688;10.746;2023-05-10T05:31:14;5.95;;;4.75;;
13163;SDS011;6647;53.688;10.746;2023-05-10T05:32:35;5.38;;;4.28;;
13163;SDS011;6647;53.688;10.746;2023-05-10T05:33:56;6.30;;;4.85;;
13163;SDS011;6647;53.688;10.746;2023-05-10T05:35:17;5.15;;;4.65;;
13163;SDS011;6647;53.688;10.746;2023-05-10T05:36:38;5.75;;;5.03;;
13163;SDS011;6647;53.688;10.746;2023-05-10T05:37:59;6.05;;;4.95;;
13163;SDS011;6647;53.688;10.746;2023-05-10T05:39:20;5.53;;;5.03;;
13163;SDS011;6647;53.688;10.746;2023-05-10T05:40:41;5.50;;;5.00;;
13163;SDS011;6647;53.688;10.746;2023-05-10T05:42:02;7.10;;;4.93;;
13163;SDS011;6647;53.688;10.746;2023-05-10T05:43:23;6.60;;;5.00;;
13163;SDS011;6647;53.688;10.746;2023-05-10T05:44:44;9.07;;;5.43;;
13163;SDS011;6647;53.688;10.746;2023-05-10T05:46:05;5.82;;;5.22;;
13163;SDS011;6647;53.688;10.746;2023-05-10T05:47:26;13.85;;;5.60;;
13163;SDS011;6647;53.688;10.746;2023-05-10T05:48:46;8.02;;;5.28;;
13163;SDS011;6647;53.688;10.746;2023-05-10T05:50:07;7.63;;;5.63;;
13163;SDS011;6647;53.688;10.746;2023-05-10T05:51:29;5.82;;;4.75;;
13163;SDS011;6647;53.688;10.746;2023-05-10T05:52:51;8.73;;;4.85;;
13163;SDS011;6647;53.688;10.746;2023-05-10T05:54:12;11.52;;;5.20;;
13163;SDS011;6647;53.688;10.746;2023-05-10T05:55:32;5.75;;;4.80;;
13163;SDS011;6647;53.688;10.746;2023-05-10T05:57:00;6.10;;;4.95;;
13163;SDS011;6647;53.688;10.746;2023-05-10T05:58:21;5.85;;;5.10;;
13163;SDS011;6647;53.688;10.746;2023-05-10T05:59:42;7.00;;;5.57;;
13163;SDS011;6647;53.688;10.746;2023-05-10T06:01:04;6.38;;;5.05;;
13163;SDS011;6647;53.688;10.746;2023-05-10T06:02:25;7.65;;;5.47;;
13163;SDS011;6647;53.688;10.746;2023-05-10T06:03:45;5.30;;;4.80;;
13163;SDS011;6647;53.688;10.746;2023-05-10T06:05:07;13.43;;;5.40;;
13163;SDS011;6647;53.688;10.746;2023-05-10T06:06:28;5.00;;;4.50;;
13163;SDS011;6647;53.688;10.746;2023-05-10T06:07:49;6.65;;;4.93;;
13163;SDS011;6647;53.688;10.746;2023-05-10T06:09:10;9.50;;;4.78;;
13163;SDS011;6647;53.688;10.746;2023-05-10T06:10:31;6.00;;;4.57;;
13163;SDS011;6647;53.688;10.746;2023-05-10T06:11:52;7.13;;;5.00;;
13163;SDS011;6647;53.688;10.746;2023-05-10T06:13:13;7.55;;;5.57;;
13163;SDS011;6647;53.688;10.746;2023-05-10T06:14:34;6.82;;;4.90;;
13163;SDS011;6647;53.688;10.746;2023-05-10T06:15:54;6.13;;;4.70;;
13163;SDS011;6647;53.688;10.746;2023-05-10T06:17:15;6.72;;;4.47;;
13163;SDS011;6647;53.688;10.746;2023-05-10T06:18:36;5.22;;;4.72;;
13163;SDS011;6647;53.688;10.746;2023-05-10T06:19:57;5.57;;;4.80;;
13163;SDS011;6647;53.688;10.746;2023-05-10T06:21:18;7.15;;;5.68;;
13163;SDS011;6647;53.688;10.746;2023-05-10T06:22:39;7.40;;;4.95;;
13163;SDS011;6647;53.688;10.746;2023-05-10T06:24:00;10.15;;;5.15;;
13163;SDS011;6647;53.688;10.746;2023-05-10T06:25:21;9.27;;;5.07;;
13163;SDS011;6647;53.688;10.746;2023-05-10T06:26:41;5.78;;;4.80;;
13163;SDS011;6647;53.688;10.746;2023-05-10T06:28:02;7.65;;;5.93;;
13163;SDS011;6647;53.688;10.746;2023-05-10T06:29:23;7.22;;;4.80;;
13163;SDS011;6647;53.688;10.746;2023-05-10T06:30:44;6.13;;;5.55;;
13163;SDS011;6647;53.688;10.746;2023-05-10T06:32:05;7.07;;;5.45;;
13163;SDS011;6647;53.688;10.746;2023-05-10T06:33:26;5.50;;;5.00;;
13163;SDS011;6647;53.688;10.746;2023-05-10T06:34:47;11.80;;;5.57;;
13163;SDS011;6647;53.688;10.746;2023-05-10T06:36:08;7.85;;;5.05;;
13163;SDS011;6647;53.688;10.746;2023-05-10T06:37:29;5.82;;;5.22;;
13163;SDS011;6647;53.688;10.746;2023-05-10T06:38:50;9.07;;;4.88;;
13163;SDS011;6647;53.688;10.746;2023-05-10T06:40:11;12.25;;;4.80;;
13163;SDS011;6647;53.688;10.746;2023-05-10T06:41:32;9.40;;;5.75;;
13163;SDS011;6647;53.688;10.746;2023-05-10T06:42:53;7.30;;;5.30;;
13163;SDS011;6647;53.688;10.746;2023-05-10T06:44:14;8.13;;;5.45;;
13163;SDS011;6647;53.688;10.746;2023-05-10T06:45:35;6.68;;;4.80;;
13163;SDS011;6647;53.688;10.746;2023-05-10T06:46:56;7.45;;;5.13;;
13163;SDS011;6647;53.688;10.746;2023-05-10T06:48:17;5.65;;;4.78;;
13163;SDS011;6647;53.688;10.746;2023-05-10T06:49:37;5.85;;;4.70;;
13163;SDS011;6647;53.688;10.746;2023-05-10T06:50:58;15.25;;;5.47;;
13163;SDS011;6647;53.688;10.746;2023-05-10T06:52:19;5.10;;;4.63;;
13163;SDS011;6647;53.688;10.746;2023-05-10T06:53:40;7.25;;;4.95;;
13163;SDS011;6647;53.688;10.746;2023-05-10T06:55:01;8.82;;;5.60;;
13163;SDS011;6647;53.688;10.746;2023-05-10T06:56:23;11.63;;;5.28;;
13163;SDS011;6647;53.688;10.746;2023-05-10T06:57:44;6.85;;;5.28;;
13163;SDS011;6647;53.688;10.746;2023-05-10T06:59:05;8.85;;;5.53;;
13163;SDS011;6647;53.688;10.746;2023-05-10T07:00:26;7.30;;;5.70;;
13163;SDS011;6647;53.688;10.746;2023-05-10T07:01:47;5.57;;;5.07;;
13163;SDS011;6647;53.688;10.746;2023-05-10T07:03:08;8.55;;;5.55;;
13163;SDS011;6647;53.688;10.746;2023-05-10T07:04:30;6.82;;;4.70;;
13163;SDS011;6647;53.688;10.746;2023-05-10T07:05:51;6.80;;;5.88;;
13163;SDS011;6647;53.688;10.746;2023-05-10T07:07:12;7.30;;;4.30;;
13163;SDS011;6647;53.688;10.746;2023-05-10T07:08:33;7.28;;;5.63;;
13163;SDS011;6647;53.688;10.746;2023-05-10T07:09:55;5.75;;;5.15;;
13163;SDS011;6647;53.688;10.746;2023-05-10T07:11:16;6.90;;;5.03;;
13163;SDS011;6647;53.688;10.746;2023-05-10T07:12:37;11.23;;;4.90;;
13163;SDS011;6647;53.688;10.746;2023-05-10T07:13:58;5.88;;;4.78;;
13163;SDS011;6647;53.688;10.746;2023-05-10T07:15:19;6.15;;;4.53;;
13163;SDS011;6647;53.688;10.746;2023-05-10T07:16:40;5.70;;;5.10;;
13163;SDS011;6647;53.688;10.746;2023-05-10T07:18:01;6.78;;;5.32;;
13163;SDS011;6647;53.688;10.746;2023-05-10T07:19:22;5.50;;;4.60;;
13163;SDS011;6647;53.688;10.746;2023-05-10T07:20:44;9.02;;;5.55;;
13163;SDS011;6647;53.688;10.746;2023-05-10T07:22:04;6.80;;;4.57;;
13163;SDS011;6647;53.688;10.746;2023-05-10T07:23:25;9.95;;;5.28;;
13163;SDS011;6647;53.688;10.746;2023-05-10T07:24:46;5.25;;;4.72;;
13163;SDS011;6647;53.688;10.746;2023-05-10T07:26:07;5.93;;;4.60;;
13163;SDS011;6647;53.688;10.746;2023-05-10T07:27:29;6.13;;;5.40;;
13163;SDS011;6647;53.688;10.746;2023-05-10T07:28:50;7.00;;;4.50;;
13163;SDS011;6647;53.688;10.746;2023-05-10T07:30:11;16.73;;;5.05;;
13163;SDS011;6647;53.688;10.746;2023-05-10T07:31:33;6.90;;;4.90;;
13163;SDS011;6647;53.688;10.746;2023-05-10T07:32:53;8.02;;;5.00;;
13163;SDS011;6647;53.688;10.746;2023-05-10T07:34:14;6.07;;;4.75;;
13163;SDS011;6647;53.688;10.746;2023-05-10T07:35:35;9.07;;;4.88;;
13163;SDS011;6647;53.688;10.746;2023-05-10T07:36:57;9.07;;;5.00;;
13163;SDS011;6647;53.688;10.746;2023-05-10T07:38:18;9.75;;;5.72;;
13163;SDS011;6647;53.688;10.746;2023-05-10T07:39:39;5.47;;;4.97;;
13163;SDS011;6647;53.688;10.746;2023-05-10T07:41:00;6.00;;;4.30;;
13163;SDS011;6647;53.688;10.746;2023-05-10T07:42:21;11.18;;;4.95;;
13163;SDS011;6647;53.688;10.746;2023-05-10T07:43:42;7.05;;;4.78;;
13163;SDS011;6647;53.688;10.746;2023-05-10T07:45:03;4.32;;;3.90;;
13163;SDS011;6647;53.688;10.746;2023-05-10T07:46:24;11.70;;;5.75;;
13163;SDS011;6647;53.688;10.746;2023-05-10T07:47:45;7.30;;;4.70;;
13163;SDS011;6647;53.688;10.746;2023-05-10T07:49:06;10.80;;;4.72;;
13163;SDS011;6647;53.688;10.746;2023-05-10T07:50:27;13.55;;;5.07;;
13163;SDS011;6647;53.688;10.746;2023-05-10T07:51:48;5.85;;;5.15;;
13163;SDS011;6647;53.688;10.746;2023-05-10T07:53:09;6.15;;;4.90;;
13163;SDS011;6647;53.688;10.746;2023-05-10T07:54:30;9.20;;;5.97;;
13163;SDS011;6647;53.688;10.746;2023-05-10T07:55:51;10.63;;;5.40;;
13163;SDS011;6647;53.688;10.746;2023-05-10T07:57:15;8.73;;;4.50;;
13163;SDS011;6647;53.688;10.746;2023-05-10T07:58:37;10.00;;;5.13;;
13163;SDS011;6647;53.688;10.746;2023-05-10T07:59:58;6.63;;;5.30;;
13163;SDS011;6647;53.688;10.746;2023-05-10T08:01:19;6.40;;;4.72;;
13163;SDS011;6647;53.688;10.746;2023-05-10T08:02:40;6.07;;;4.65;;
13163;SDS011;6647;53.688;10.746;2023-05-10T08:04:01;6.80;;;4.70;;
13163;SDS011;6647;53.688;10.746;2023-05-10T08:05:22;5.78;;;5.13;;
13163;SDS011;6647;53.688;10.746;2023-05-10T08:06:43;7.40;;;4.53;;
13163;SDS011;6647;53.688;10.746;2023-05-10T08:08:04;6.35;;;4.70;;
13163;SDS011;6647;53.688;10.746;2023-05-10T08:09:25;5.88;;;4.70;;
13163;SDS011;6647;53.688;10.746;2023-05-10T08:10:46;6.30;;;4.93;;
13163;SDS011;6647;53.688;10.746;2023-05-10T08:12:07;6.75;;;4.95;;
13163;SDS011;6647;53.688;10.746;2023-05-10T08:13:28;6.55;;;4.47;;
13163;SDS011;6647;53.688;10.746;2023-05-10T08:14:48;5.60;;;4.50;;
13163;SDS011;6647;53.688;10.746;2023-05-10T08:16:09;6.05;;;5.35;;
13163;SDS011;6647;53.688;10.746;2023-05-10T08:17:30;6.15;;;4.75;;
13163;SDS011;6647;53.688;10.746;2023-05-10T08:18:51;5.40;;;4.90;;
13163;SDS011;6647;53.688;10.746;2023-05-10T08:20:12;5.30;;;4.80;;
13163;SDS011;6647;53.688;10.746;2023-05-10T08:21:36;10.18;;;4.70;;
13163;SDS011;6647;53.688;10.746;2023-05-10T08:22:57;4.88;;;4.10;;
13163;SDS011;6647;53.688;10.746;2023-05-10T08:24:19;11.63;;;4.95;;
13163;SDS011;6647;53.688;10.746;2023-05-10T08:25:40;6.53;;;5.15;;
13163;SDS011;6647;53.688;10.746;2023-05-10T08:27:00;8.30;;;4.90;;
13163;SDS011;6647;53.688;10.746;2023-05-10T08:28:21;9.82;;;5.22;;
13163;SDS011;6647;53.688;10.746;2023-05-10T08:29:42;8.13;;;4.60;;